N328AP PANC-PANC
Flight info
| Callsign | N328AP |
|---|---|
| Flight time | N/A |
| Altitude | 3000 |
| Route | PANC |
| Aircraft | F14/M-SFG/C |
Departure
| Time | 2026-05-08 02:21 |
|---|---|
| Airport | Ted Stevens Anchorage International Airport (PANC) |
Arrival
| Time | N/A |
|---|---|
| Airport | Ted Stevens Anchorage International Airport (PANC) |
| Time | Latitude | Longitude | Altitude | Speed | Heading |
|---|---|---|---|---|---|
| 2026-05-08 02:19 | 61.16981 | -149.94888 | 114 ft | 0 kts | 270° |
| 2026-05-08 02:20 | 61.16981 | -149.94890 | 114 ft | 0 kts | 270° |
| 2026-05-08 02:20 | 61.16981 | -149.94891 | 114 ft | 2 kts | 270° |
| 2026-05-08 02:20 | 61.16982 | -149.95515 | 115 ft | 108 kts | 270° |
| 2026-05-08 02:20 | 61.16986 | -149.97949 | 224 ft | 217 kts | 272° |
| 2026-05-08 02:21 | 61.16998 | -150.01408 | 1160 ft | 256 kts | 271° |
| 2026-05-08 02:21 | 61.17022 | -150.04369 | 1811 ft | 259 kts | 271° |
| 2026-05-08 02:21 | 61.17066 | -150.08107 | 2259 ft | 260 kts | 271° |
| 2026-05-08 02:21 | 61.17115 | -150.11806 | 2476 ft | 262 kts | 270° |
| 2026-05-08 02:22 | 61.17161 | -150.15655 | 2494 ft | 268 kts | 270° |
| 2026-05-08 02:22 | 61.17226 | -150.19525 | 2405 ft | 278 kts | 271° |
| 2026-05-08 02:22 | 61.17246 | -150.24649 | 2962 ft | 439 kts | 268° |
| 2026-05-08 02:22 | 61.17716 | -150.32156 | 2599 ft | 626 kts | 281° |
| 2026-05-08 02:23 | 61.18980 | -150.41779 | 2374 ft | 745 kts | 296° |
| 2026-05-08 02:23 | 61.21576 | -150.51796 | 2433 ft | 838 kts | 298° |
| 2026-05-08 02:23 | 61.25449 | -150.61180 | 2549 ft | 887 kts | 320° |
| 2026-05-08 02:23 | 61.30114 | -150.69926 | 2607 ft | 919 kts | 317° |
| 2026-05-08 02:24 | 61.34898 | -150.78857 | 2911 ft | 927 kts | 317° |
| 2026-05-08 02:24 | 61.39368 | -150.87207 | 9192 ft | 890 kts | 318° |
| 2026-05-08 02:24 | 61.43869 | -150.95601 | 14403 ft | 900 kts | 304° |
| 2026-05-08 02:24 | 61.46143 | -151.07736 | 14223 ft | 944 kts | 284° |
| 2026-05-08 02:25 | 61.47411 | -151.21463 | 10886 ft | 1006 kts | 264° |
| 2026-05-08 02:25 | 61.43445 | -151.28661 | 3134 ft | 879 kts | 155° |
| 2026-05-08 02:25 | 61.39321 | -151.19815 | 1094 ft | 893 kts | 130° |
| 2026-05-08 02:25 | 61.35307 | -151.09660 | 1030 ft | 912 kts | 130° |
| 2026-05-08 02:26 | 61.31193 | -151.00217 | 2371 ft | 791 kts | 158° |
| 2026-05-08 02:26 | 61.26397 | -150.95328 | 5052 ft | 844 kts | 154° |
| 2026-05-08 02:26 | 61.21101 | -150.89487 | 1811 ft | 884 kts | 131° |
| 2026-05-08 02:26 | 61.22825 | -150.84364 | 1560 ft | 655 kts | 348° |
| 2026-05-08 02:27 | 61.27740 | -150.84889 | 414 ft | 733 kts | 7° |
| 2026-05-08 02:27 | 61.31714 | -150.84018 | 449 ft | 469 kts | 6° |
| 2026-05-08 02:27 | 61.34974 | -150.83113 | 640 ft | 456 kts | 18° |
| 2026-05-08 02:27 | 61.37232 | -150.79425 | 882 ft | 385 kts | 46° |
| 2026-05-08 02:28 | 61.38951 | -150.75764 | 848 ft | 393 kts | 47° |
| 2026-05-08 02:28 | 61.40969 | -150.70390 | 644 ft | 496 kts | 58° |
| 2026-05-08 02:28 | 61.42236 | -150.64281 | 175 ft | 434 kts | 70° |
| 2026-05-08 02:28 | 61.43183 | -150.58754 | 155 ft | 383 kts | 71° |
| 2026-05-08 02:29 | 61.43884 | -150.54137 | 36 ft | 299 kts | 75° |
| 2026-05-08 02:29 | 61.44379 | -150.50119 | 171 ft | 272 kts | 77° |
| 2026-05-08 02:29 | 61.44843 | -150.45737 | 1099 ft | 388 kts | 78° |
| 2026-05-08 02:29 | 61.45777 | -150.39703 | 4103 ft | 525 kts | 70° |
| 2026-05-08 02:30 | 61.47120 | -150.32065 | 8066 ft | 629 kts | 74° |
| 2026-05-08 02:30 | 61.48463 | -150.23181 | 12133 ft | 688 kts | 74° |
| 2026-05-08 02:30 | 61.49826 | -150.13531 | 15691 ft | 732 kts | 75° |
| 2026-05-08 02:30 | 61.51233 | -150.02995 | 18744 ft | 759 kts | 78° |
| 2026-05-08 02:31 | 61.51531 | -149.94409 | 27064 ft | 622 kts | 112° |
| 2026-05-08 02:31 | 61.49582 | -149.88808 | 32994 ft | 518 kts | 151° |
| 2026-05-08 02:31 | 61.46751 | -149.84918 | 34254 ft | 492 kts | 151° |
| 2026-05-08 02:31 | 61.43781 | -149.80988 | 33771 ft | 526 kts | 153° |
| 2026-05-08 02:32 | 61.40561 | -149.76961 | 34176 ft | 547 kts | 154° |
| 2026-05-08 02:32 | 61.37162 | -149.73056 | 34604 ft | 563 kts | 156° |
| 2026-05-08 02:32 | 61.33569 | -149.69659 | 34948 ft | 576 kts | 163° |
| 2026-05-08 02:32 | 61.29630 | -149.67647 | 34360 ft | 594 kts | 183° |
| 2026-05-08 02:33 | 61.25663 | -149.68881 | 34069 ft | 584 kts | 208° |
| 2026-05-08 02:33 | 61.22464 | -149.73789 | 33658 ft | 580 kts | 237° |
| 2026-05-08 02:33 | 61.20617 | -149.81395 | 33415 ft | 597 kts | 249° |
| 2026-05-08 02:33 | 61.19275 | -149.89702 | 33408 ft | 626 kts | 252° |
| 2026-05-08 02:34 | 61.17996 | -149.98337 | 33797 ft | 638 kts | 252° |
| 2026-05-08 02:34 | 61.17033 | -150.07440 | 33895 ft | 670 kts | 266° |
| 2026-05-08 02:34 | 61.17254 | -150.17099 | 33426 ft | 650 kts | 274° |
| 2026-05-08 02:34 | 61.17548 | -150.25383 | 33526 ft | 517 kts | 271° |
| 2026-05-08 02:35 | 61.17765 | -150.32437 | 33669 ft | 475 kts | 272° |
| 2026-05-08 02:35 | 61.17978 | -150.38771 | 31174 ft | 523 kts | 271° |
| 2026-05-08 02:35 | 61.18103 | -150.44322 | 19641 ft | 627 kts | 269° |
| 2026-05-08 02:35 | 61.17827 | -150.48755 | 5111 ft | 660 kts | 244° |
| 2026-05-08 02:36 | 61.17551 | -150.56604 | 1144 ft | 590 kts | 282° |
| 2026-05-08 02:36 | 61.20124 | -150.57089 | 1745 ft | 622 kts | 66° |
| 2026-05-08 02:36 | 61.22238 | -150.47916 | 868 ft | 751 kts | 64° |
| 2026-05-08 02:36 | 61.24323 | -150.40527 | 1223 ft | 452 kts | 52° |
| 2026-05-08 02:37 | 61.26231 | -150.37476 | 2911 ft | 271 kts | 16° |
| 2026-05-08 02:37 | 61.27782 | -150.36104 | 1734 ft | 248 kts | 46° |
| 2026-05-08 02:37 | 61.28328 | -150.33083 | 1322 ft | 224 kts | 84° |
| 2026-05-08 02:37 | 61.28576 | -150.30013 | 1412 ft | 207 kts | 79° |
| 2026-05-08 02:38 | 61.28843 | -150.27078 | 1230 ft | 212 kts | 85° |
| 2026-05-08 02:38 | 61.28840 | -150.24033 | 1408 ft | 206 kts | 99° |
| 2026-05-08 02:38 | 61.28463 | -150.21173 | 1483 ft | 207 kts | 111° |
| 2026-05-08 02:38 | 61.27972 | -150.18373 | 1611 ft | 196 kts | 110° |
| 2026-05-08 02:39 | 61.27518 | -150.15903 | 1484 ft | 171 kts | 113° |
| 2026-05-08 02:39 | 61.27042 | -150.13742 | 1227 ft | 169 kts | 115° |
| 2026-05-08 02:39 | 61.26520 | -150.11552 | 1135 ft | 164 kts | 117° |
| 2026-05-08 02:39 | 61.25977 | -150.09460 | 1077 ft | 165 kts | 118° |
| 2026-05-08 02:40 | 61.25398 | -150.07420 | 1034 ft | 165 kts | 122° |
| 2026-05-08 02:40 | 61.24794 | -150.05392 | 964 ft | 165 kts | 118° |
| 2026-05-08 02:40 | 61.23991 | -150.03732 | 910 ft | 165 kts | 150° |
| 2026-05-08 02:40 | 61.22870 | -150.02998 | 690 ft | 171 kts | 165° |
| 2026-05-08 02:41 | 61.21765 | -150.02435 | 455 ft | 160 kts | 166° |
| 2026-05-08 02:41 | 61.20696 | -150.01866 | 253 ft | 156 kts | 165° |
| 2026-05-08 02:41 | 61.19644 | -150.01277 | 119 ft | 153 kts | 165° |
| 2026-05-08 02:41 | 61.18726 | -150.00749 | 116 ft | 102 kts | 166° |